Wormley Airport

Jump to: basic info | weather | runways | comments

Related pages: nearby airports | nearby navaids | notams | map

Basic information (top)

Codes: 85LL
Location: lon 41.683899, lat -88.262299, elev 680 ft / 207 m msl
Status: small_airport

Weather (top)

Current conditions for Lewis University Airport 9nm (16km) ESE (rec'd 2014/11/24 17:15Z):

KLOT 241715Z AUTO 26027G36KT 1SM -SN OVC006 00/00 A2935

Airport forecast for Dupage Airport 13nm (25km) N (rec'd 2014/11/24 12:39Z):

TAF KDPA 241137Z 2412/2512 24010KT 4SM -RA BR OVC004 
     FM241300 27015G22KT 4SM -RA BR OVC006 
     FM241600 27020G30KT 3SM -RASN OVC007 
     FM241800 25024G33KT 2SM -SN SCT007 OVC015 
     FM242100 25023G31KT 5SM -SN SCT007 OVC015 
     FM250100 25017G27KT P6SM -SHSN SCT010 OVC020 
     FM250600 26013KT P6SM BKN025 OVC035

Runways (top)

N/S: 2,300 x 100 ft (701 x 30 m) — grass — not lighted

Latest comments (top)

No comments yet for Wormley Airport

More... (top)

See also NOTAMs and nearby airports and navaids, or visit the Wormley Airport page at the main OurAirports website..